LFLB 270630Z AUTO 35003KT 310V030 CAVOK 17/11 Q1012 NOSIG

ElémentsDécodage
LFLB Station météo située sur l'aérodrome de CHAMBERY Aix-les-Bains
270630Z émis le 27 du mois à 06h30 UTC
AUTO Bulletin édité par un automate
35003KT vent du 350°, 03 noeuds
310V030 vent de direction variable entre 310° et 030°
CAVOK Ceiling And Visibility OK
- Visibilité de 10 Km ou plus
- Pas de nuage au-dessous de 1500m ou au-dessous de l'altitude minimale du secteur la plus élevée (si>1500m) et absence de CB
- pas de temps présent significatif
17/11 température 17°C, point de rosée 11°C
 soit une humidité relative de 68%
Q1012 la pression au niveau de la mer (QNH) est de 1012 hPa
NOSIG Pas de changement significatif prévu au cours des deux heures suivant l'heure de l'observation